createdAt,value
2023-01-25T00:00:51.311Z,3.38
2023-01-25T00:03:18.573Z,2.67
2023-01-25T00:05:45.786Z,3.63
2023-01-25T00:08:12.902Z,3.67
2023-01-25T00:10:40.078Z,4.70
2023-01-25T00:13:07.159Z,0.82
2023-01-25T00:15:34.295Z,3.53
2023-01-25T00:18:01.426Z,2.33
2023-01-25T00:20:28.632Z,4.13
2023-01-25T00:22:55.722Z,3.08
2023-01-25T00:25:22.844Z,4.03
2023-01-25T00:27:49.950Z,2.22
2023-01-25T00:30:17.286Z,1.58
2023-01-25T00:33:03.371Z,4.20
2023-01-25T00:35:32.656Z,2.53
2023-01-25T00:38:03.325Z,0.80
2023-01-25T00:40:30.689Z,3.63
2023-01-25T00:43:00.924Z,3.72
2023-01-25T00:45:28.207Z,2.75
2023-01-25T00:47:56.552Z,2.72
2023-01-25T00:50:23.736Z,1.58
2023-01-25T00:52:50.912Z,3.30
2023-01-25T00:55:18.125Z,2.28
2023-01-25T00:57:45.263Z,3.50
2023-01-25T01:00:13.473Z,3.60
2023-01-25T01:02:40.756Z,3.20
2023-01-25T01:05:08.594Z,2.63
2023-01-25T01:07:35.914Z,3.25
2023-01-25T01:10:03.508Z,1.70
2023-01-25T01:12:30.932Z,3.28
2023-01-25T01:14:58.281Z,3.80
2023-01-25T01:17:25.495Z,3.72
2023-01-25T01:19:52.545Z,1.83
2023-01-25T01:22:19.614Z,3.40
2023-01-25T01:24:49.048Z,4.55
2023-01-25T01:27:16.262Z,1.40
2023-01-25T01:29:43.510Z,2.22
2023-01-25T01:32:10.929Z,1.25
2023-01-25T01:34:38.155Z,4.13
2023-01-25T01:37:05.283Z,3.88
2023-01-25T01:39:32.480Z,4.10
2023-01-25T01:41:59.736Z,3.65
2023-01-25T01:44:45.103Z,4.07
2023-01-25T01:47:29.209Z,3.97
2023-01-25T01:50:06.160Z,4.57
2023-01-25T01:52:37.915Z,3.28
2023-01-25T01:55:08.480Z,2.30
2023-01-25T01:57:41.701Z,2.13
2023-01-25T02:00:33.902Z,4.28
2023-01-25T02:03:02.156Z,4.10
2023-01-25T02:05:56.476Z,4.28
2023-01-25T02:08:25.073Z,3.80
2023-01-25T02:10:52.947Z,4.13
2023-01-25T02:13:21.668Z,3.60
2023-01-25T02:15:52.012Z,4.18
2023-01-25T02:18:24.569Z,3.97
2023-01-25T02:20:57.761Z,4.05
2023-01-25T02:23:33.450Z,3.97
2023-01-25T02:26:05.839Z,2.65
2023-01-25T02:31:16.080Z,2.67
2023-01-25T02:33:43.227Z,2.50
2023-01-25T02:36:35.546Z,3.90
2023-01-25T02:39:08.047Z,3.55
2023-01-25T02:41:41.844Z,2.47
2023-01-25T02:44:21.461Z,2.95
2023-01-25T02:46:48.885Z,3.38
2023-01-25T02:49:17.056Z,2.22
2023-01-25T02:51:47.686Z,3.42
2023-01-25T02:54:16.839Z,2.13
2023-01-25T02:56:43.995Z,3.33
2023-01-25T02:59:13.510Z,3.28
2023-01-25T03:01:45.489Z,4.30
2023-01-25T03:04:13.142Z,3.67
2023-01-25T03:06:40.706Z,3.40
2023-01-25T03:09:10.263Z,3.97
2023-01-25T03:11:40.682Z,3.30
2023-01-25T03:14:07.856Z,4.45
2023-01-25T03:16:35.086Z,3.25
2023-01-25T03:19:03.521Z,4.05
2023-01-25T03:21:30.757Z,3.53
2023-01-25T03:24:00.768Z,4.13
2023-01-25T03:26:54.748Z,4.03
2023-01-25T03:29:26.643Z,3.47
2023-01-25T03:31:54.029Z,4.22
2023-01-25T03:34:21.318Z,3.65
2023-01-25T03:36:48.427Z,4.28
2023-01-25T03:39:15.776Z,4.00
2023-01-25T03:41:43.982Z,4.53
2023-01-25T03:44:13.819Z,4.35
2023-01-25T03:46:43.163Z,3.80
2023-01-25T03:49:12.052Z,3.90
2023-01-25T03:51:39.180Z,3.70
2023-01-25T03:54:08.508Z,3.83
2023-01-25T03:56:37.528Z,3.33
2023-01-25T03:59:12.709Z,5.32
2023-01-25T04:01:41.184Z,4.55
2023-01-25T04:04:08.379Z,4.78
2023-01-25T04:06:37.570Z,3.70
2023-01-25T04:09:05.530Z,4.30
2023-01-25T04:11:38.855Z,2.78
2023-01-25T04:14:06.393Z,3.80
2023-01-25T04:16:41.755Z,4.20
2023-01-25T04:19:24.483Z,3.35
2023-01-25T04:21:51.758Z,2.60
2023-01-25T04:24:19.233Z,4.05
2023-01-25T04:26:46.395Z,4.75
2023-01-25T04:29:14.103Z,4.15
2023-01-25T04:31:41.400Z,3.67
2023-01-25T04:34:08.586Z,4.00
2023-01-25T04:36:35.815Z,3.60
2023-01-25T04:39:03.251Z,3.78
2023-01-25T04:41:31.075Z,4.07
2023-01-25T04:43:58.455Z,3.25
2023-01-25T04:46:26.083Z,5.68
2023-01-25T04:48:55.047Z,4.22
2023-01-25T04:51:22.158Z,5.13
2023-01-25T04:53:49.282Z,5.80
2023-01-25T04:56:16.427Z,5.20
2023-01-25T04:58:53.906Z,5.75
2023-01-25T05:01:22.374Z,3.97
2023-01-25T05:03:51.247Z,2.53
2023-01-25T05:06:38.623Z,1.85
2023-01-25T05:09:06.815Z,3.83
2023-01-25T05:11:35.500Z,4.35
2023-01-25T05:14:07.031Z,5.40
2023-01-25T05:16:34.974Z,5.25
2023-01-25T05:19:03.392Z,3.55
2023-01-25T05:21:59.653Z,4.10
2023-01-25T05:24:45.372Z,4.28
2023-01-25T05:27:18.203Z,4.68
2023-01-25T05:29:55.358Z,5.15
2023-01-25T05:32:38.738Z,5.35
2023-01-25T05:35:07.402Z,5.57
2023-01-25T05:37:34.941Z,5.45
2023-01-25T05:40:06.388Z,4.70
2023-01-25T05:42:37.673Z,3.00
2023-01-25T05:45:09.417Z,5.80
2023-01-25T05:47:39.328Z,3.90
2023-01-25T05:50:08.791Z,3.75
2023-01-25T05:52:50.735Z,4.40
2023-01-25T05:55:18.201Z,5.60
2023-01-25T05:57:45.340Z,3.85
2023-01-25T06:00:12.859Z,4.75
2023-01-25T06:02:42.860Z,4.68
2023-01-25T06:05:16.813Z,4.32
2023-01-25T06:07:44.030Z,4.80
2023-01-25T06:10:11.973Z,4.30
2023-01-25T06:12:40.683Z,2.00
2023-01-25T06:15:08.891Z,5.13
2023-01-25T06:17:36.230Z,4.35
2023-01-25T06:20:17.086Z,2.55
2023-01-25T06:23:02.583Z,5.10
2023-01-25T06:25:29.916Z,3.25
2023-01-25T06:27:57.058Z,5.35
2023-01-25T06:30:24.189Z,4.78
2023-01-25T06:32:51.334Z,4.25
2023-01-25T06:35:18.468Z,5.22
2023-01-25T06:37:45.694Z,4.88
2023-01-25T06:40:13.000Z,5.40
2023-01-25T06:42:40.080Z,4.88
2023-01-25T06:45:08.203Z,4.40
2023-01-25T06:47:35.615Z,5.20
2023-01-25T06:50:02.754Z,5.53
2023-01-25T06:52:31.988Z,5.25
2023-01-25T06:54:59.135Z,3.80
2023-01-25T06:57:26.217Z,2.80
2023-01-25T06:59:53.283Z,5.20
2023-01-25T07:02:20.510Z,4.40
2023-01-25T07:04:47.883Z,5.05
2023-01-25T07:07:14.999Z,5.20
2023-01-25T07:09:42.244Z,4.72
2023-01-25T07:12:09.408Z,4.80
2023-01-25T07:14:36.666Z,5.20
2023-01-25T07:17:04.109Z,4.65
2023-01-25T07:19:31.473Z,3.78
2023-01-25T07:21:58.599Z,4.75
2023-01-25T07:24:27.410Z,4.43
2023-01-25T07:26:54.575Z,4.22
2023-01-25T07:29:22.581Z,5.25
2023-01-25T07:31:49.791Z,4.10
2023-01-25T07:34:17.009Z,4.60
2023-01-25T07:36:44.733Z,4.03
2023-01-25T07:39:12.131Z,6.13
2023-01-25T07:41:40.420Z,4.95
2023-01-25T07:44:12.452Z,5.00
2023-01-25T07:46:44.672Z,4.50
2023-01-25T07:49:11.757Z,4.82
2023-01-25T07:51:38.871Z,3.15
2023-01-25T07:54:06.108Z,5.35
2023-01-25T07:56:36.626Z,4.07
2023-01-25T07:59:04.433Z,4.22
2023-01-25T08:01:34.552Z,4.55
2023-01-25T08:04:03.018Z,3.70
2023-01-25T08:06:35.723Z,4.10
2023-01-25T08:09:19.921Z,4.68
2023-01-25T08:11:49.436Z,5.25
2023-01-25T08:14:16.877Z,4.75
2023-01-25T08:16:44.110Z,5.47
2023-01-25T08:19:11.955Z,4.93
2023-01-25T08:21:39.918Z,4.57
2023-01-25T08:24:08.251Z,4.43
2023-01-25T08:26:36.475Z,5.00
2023-01-25T08:29:04.621Z,4.45
2023-01-25T08:31:35.063Z,5.78
2023-01-25T08:34:02.778Z,5.55
2023-01-25T08:36:30.225Z,5.85
2023-01-25T08:39:02.928Z,4.72
2023-01-25T08:41:31.904Z,5.10
2023-01-25T08:43:59.648Z,5.38
2023-01-25T08:46:31.363Z,5.28
2023-01-25T08:49:01.214Z,5.35
2023-01-25T08:51:28.852Z,6.32
2023-01-25T08:53:55.990Z,5.00
2023-01-25T08:56:23.094Z,4.82
2023-01-25T08:58:51.245Z,5.18
2023-01-25T09:01:20.178Z,5.75
2023-01-25T09:03:51.779Z,5.63
2023-01-25T09:06:20.407Z,6.15
2023-01-25T09:08:48.437Z,5.47
2023-01-25T09:11:18.653Z,5.22
2023-01-25T09:13:46.400Z,6.30
2023-01-25T09:16:16.159Z,4.93
2023-01-25T09:18:44.654Z,4.65
2023-01-25T09:21:17.108Z,4.80
2023-01-25T09:23:51.338Z,5.10
2023-01-25T09:26:25.804Z,4.57
2023-01-25T09:28:54.783Z,5.30
2023-01-25T09:31:23.848Z,3.70
2023-01-25T09:34:14.665Z,5.20
2023-01-25T09:36:41.845Z,5.22
2023-01-25T09:39:12.460Z,5.47
2023-01-25T09:41:42.552Z,5.05
2023-01-25T09:44:22.678Z,5.10
2023-01-25T09:47:04.177Z,4.72
2023-01-25T09:49:59.480Z,5.40
2023-01-25T09:53:11.306Z,5.18
2023-01-25T09:55:39.677Z,5.57
2023-01-25T09:58:22.092Z,5.40
2023-01-25T10:00:55.050Z,4.50
2023-01-25T10:03:32.551Z,5.28
2023-01-25T10:06:02.782Z,5.20
2023-01-25T10:08:43.032Z,5.40
2023-01-25T10:11:22.015Z,4.75
2023-01-25T10:13:49.436Z,4.72
2023-01-25T10:16:26.074Z,2.83
2023-01-25T10:19:03.699Z,3.85
2023-01-25T10:21:49.209Z,4.05
2023-01-25T10:24:34.994Z,4.55
2023-01-25T10:27:13.980Z,4.88
2023-01-25T10:29:41.416Z,4.85
2023-01-25T10:32:35.845Z,5.45
2023-01-25T10:35:29.431Z,5.57
2023-01-25T10:38:07.188Z,4.47
2023-01-25T10:40:46.547Z,5.63
2023-01-25T10:43:19.139Z,5.63
2023-01-25T10:45:48.193Z,4.65
2023-01-25T10:48:22.454Z,6.10
2023-01-25T10:50:54.998Z,5.93
2023-01-25T10:53:30.103Z,5.22
2023-01-25T10:56:02.378Z,5.90
2023-01-25T10:58:30.805Z,6.40
2023-01-25T11:00:58.199Z,6.68
2023-01-25T11:03:35.347Z,5.85
2023-01-25T11:06:02.598Z,5.43
2023-01-25T11:08:44.660Z,5.90
2023-01-25T11:11:32.858Z,6.22
2023-01-25T11:14:00.540Z,3.85
2023-01-25T11:16:34.236Z,5.75
2023-01-25T11:19:02.950Z,5.45
2023-01-25T11:21:33.510Z,5.78
2023-01-25T11:24:18.926Z,5.47
2023-01-25T11:26:46.731Z,4.60
2023-01-25T11:29:17.961Z,5.40
2023-01-25T11:31:51.772Z,4.95
2023-01-25T11:34:22.275Z,5.45
2023-01-25T11:37:18.524Z,5.00
2023-01-25T11:40:13.517Z,4.78
2023-01-25T11:43:09.517Z,5.10
2023-01-25T11:46:27.189Z,4.88
2023-01-25T11:49:26.451Z,5.55
2023-01-25T11:51:56.742Z,4.22
2023-01-25T11:54:51.482Z,5.18
2023-01-25T11:57:45.964Z,5.20
2023-01-25T12:00:26.915Z,5.60
2023-01-25T12:03:18.852Z,5.25
2023-01-25T12:06:01.219Z,6.18
2023-01-25T12:08:46.723Z,3.25
2023-01-25T12:11:54.651Z,5.68
2023-01-25T12:14:41.905Z,5.72
2023-01-25T12:17:11.927Z,5.22
2023-01-25T12:20:06.969Z,6.63
2023-01-25T12:22:52.668Z,5.20
2023-01-25T12:25:41.131Z,5.47
2023-01-25T12:28:08.361Z,6.28
2023-01-25T12:31:02.693Z,5.50
2023-01-25T12:33:39.812Z,5.72
2023-01-25T12:36:23.267Z,5.70
2023-01-25T12:39:13.790Z,5.03
2023-01-25T12:41:50.413Z,6.07
2023-01-25T12:44:24.741Z,5.13
2023-01-25T12:47:18.835Z,5.40
2023-01-25T12:49:55.469Z,5.47
2023-01-25T12:52:32.338Z,5.63
2023-01-25T12:55:05.440Z,5.05
2023-01-25T12:57:42.020Z,4.18
2023-01-25T13:00:50.656Z,6.30
2023-01-25T13:03:50.490Z,5.15
2023-01-25T13:06:39.667Z,5.65
2023-01-25T13:09:33.878Z,6.00
2023-01-25T13:12:04.252Z,5.65
2023-01-25T13:14:39.458Z,5.28
2023-01-25T13:17:35.652Z,5.38
2023-01-25T13:20:41.742Z,5.97
2023-01-25T13:23:47.619Z,4.88
2023-01-25T13:26:28.456Z,4.93
2023-01-25T13:29:01.219Z,6.60
2023-01-25T13:31:51.685Z,6.80
2023-01-25T13:34:35.768Z,6.05
2023-01-25T13:37:19.401Z,5.20
2023-01-25T13:39:46.529Z,5.57
2023-01-25T13:42:13.611Z,5.18
2023-01-25T13:44:47.157Z,5.78
2023-01-25T13:47:20.259Z,5.85
2023-01-25T13:49:54.498Z,5.53
2023-01-25T13:52:24.767Z,5.63
2023-01-25T13:54:56.823Z,5.95
2023-01-25T13:57:29.749Z,5.97
2023-01-25T14:00:10.689Z,6.55
2023-01-25T14:02:56.962Z,5.78
2023-01-25T14:05:26.142Z,6.30
2023-01-25T14:07:56.659Z,6.35
2023-01-25T14:10:27.907Z,6.47
2023-01-25T14:13:02.513Z,7.25
2023-01-25T14:15:33.176Z,6.00
2023-01-25T14:18:16.441Z,6.30
2023-01-25T14:20:45.326Z,6.47
2023-01-25T14:23:27.192Z,7.43
2023-01-25T14:25:56.002Z,6.15
2023-01-25T14:28:23.157Z,5.15
2023-01-25T14:30:55.952Z,6.38
2023-01-25T14:33:32.104Z,6.82
2023-01-25T14:36:24.432Z,6.57
2023-01-25T14:38:53.160Z,6.38
2023-01-25T14:41:28.707Z,7.13
2023-01-25T14:43:58.236Z,6.57
2023-01-25T14:46:28.754Z,6.13
2023-01-25T14:49:26.462Z,6.95
2023-01-25T14:52:05.624Z,6.05
2023-01-25T14:54:35.633Z,6.72
2023-01-25T14:57:05.856Z,6.07
2023-01-25T14:59:39.953Z,7.25
2023-01-25T15:02:27.066Z,6.93
2023-01-25T15:04:59.169Z,6.07
2023-01-25T15:07:49.568Z,6.22
2023-01-25T15:10:19.820Z,3.58
2023-01-25T15:13:14.165Z,4.75
2023-01-25T15:15:58.954Z,5.95
2023-01-25T15:18:53.452Z,6.45
2023-01-25T15:21:24.698Z,5.93
2023-01-25T15:23:53.167Z,5.60
2023-01-25T15:26:29.004Z,4.85
2023-01-25T15:29:17.731Z,4.68
2023-01-25T15:31:45.150Z,6.00
2023-01-25T15:34:38.620Z,6.25
2023-01-25T15:37:05.671Z,5.80
2023-01-25T15:39:32.875Z,6.13
2023-01-25T15:42:00.053Z,6.25
2023-01-25T15:44:27.195Z,5.10
2023-01-25T15:46:54.530Z,5.88
2023-01-25T15:49:26.795Z,6.43
2023-01-25T15:51:55.276Z,3.65
2023-01-25T15:54:22.596Z,6.85
2023-01-25T15:56:55.610Z,5.25
2023-01-25T15:59:23.033Z,6.80
2023-01-25T16:01:50.236Z,6.15
2023-01-25T16:04:17.366Z,6.57
2023-01-25T16:06:50.219Z,4.38
2023-01-25T16:09:20.233Z,2.53
2023-01-25T16:11:51.235Z,3.27
2023-01-25T16:16:49.191Z,4.90
2023-01-25T16:19:20.143Z,6.40
2023-01-25T16:21:47.364Z,6.82
2023-01-25T16:24:14.993Z,5.93
2023-01-25T16:26:50.819Z,6.68
2023-01-25T16:29:17.945Z,6.50
2023-01-25T16:31:45.244Z,6.10
2023-01-25T16:34:12.738Z,6.40
2023-01-25T16:36:39.910Z,6.50
2023-01-25T16:39:17.562Z,6.53
2023-01-25T16:41:44.637Z,5.45
2023-01-25T16:44:11.796Z,6.43
2023-01-25T16:46:38.873Z,6.15
2023-01-25T16:49:09.121Z,6.00
2023-01-25T16:51:37.581Z,6.00
2023-01-25T16:54:04.707Z,5.40
2023-01-25T16:56:33.405Z,6.65
2023-01-25T16:59:03.821Z,5.93
2023-01-25T17:01:31.565Z,4.57
2023-01-25T17:03:58.845Z,5.93
2023-01-25T17:06:29.410Z,6.45
2023-01-25T17:09:00.345Z,5.60
2023-01-25T17:13:57.699Z,4.70
2023-01-25T17:16:26.602Z,5.07
2023-01-25T17:19:00.099Z,6.00
2023-01-25T17:21:27.765Z,5.75
2023-01-25T17:23:57.077Z,6.80
2023-01-25T17:26:24.699Z,5.97
2023-01-25T17:28:52.762Z,5.57
2023-01-25T17:31:22.947Z,5.97
2023-01-25T17:33:50.438Z,6.32
2023-01-25T17:36:17.541Z,6.57
2023-01-25T17:38:44.911Z,6.53
2023-01-25T17:41:14.854Z,5.93
2023-01-25T17:43:42.369Z,6.50
2023-01-25T17:46:25.729Z,6.68
2023-01-25T17:48:53.682Z,6.75
2023-01-25T17:51:22.860Z,6.45
2023-01-25T17:53:51.876Z,7.90
2023-01-25T17:56:21.773Z,6.55
2023-01-25T17:58:49.173Z,4.95
2023-01-25T18:01:19.342Z,7.45
2023-01-25T18:03:47.672Z,5.45
2023-01-25T18:06:17.062Z,7.03
2023-01-25T18:08:48.290Z,6.00
2023-01-25T18:11:21.853Z,7.20
2023-01-25T18:13:54.427Z,7.28
2023-01-25T18:16:22.791Z,3.75
2023-01-25T18:18:52.340Z,6.05
2023-01-25T18:21:25.947Z,3.20
2023-01-25T18:23:55.831Z,6.85
2023-01-25T18:26:31.966Z,7.70
2023-01-25T18:29:26.190Z,6.72
2023-01-25T18:31:53.559Z,7.55
2023-01-25T18:34:20.708Z,5.78
2023-01-25T18:36:48.664Z,6.90
2023-01-25T18:39:15.770Z,6.03
2023-01-25T18:41:44.677Z,7.20
2023-01-25T18:44:11.891Z,7.85
2023-01-25T18:46:40.671Z,6.85
2023-01-25T18:49:07.788Z,6.97
2023-01-25T18:51:38.945Z,6.25
2023-01-25T18:54:11.475Z,7.03
2023-01-25T18:56:38.569Z,4.82
2023-01-25T18:59:06.148Z,6.53
2023-01-25T19:01:33.406Z,5.05
2023-01-25T19:04:00.573Z,4.60
2023-01-25T19:06:27.695Z,3.70
2023-01-25T19:08:56.597Z,2.67
2023-01-25T19:11:24.073Z,5.22
2023-01-25T19:13:51.203Z,5.57
2023-01-25T19:16:21.364Z,5.70
2023-01-25T19:18:50.538Z,5.45
2023-01-25T19:21:20.979Z,5.45
2023-01-25T19:23:48.577Z,6.28
2023-01-25T19:26:18.191Z,6.10
2023-01-25T19:28:46.269Z,6.63
2023-01-25T19:31:18.523Z,5.95
2023-01-25T19:33:46.141Z,5.47
2023-01-25T19:36:16.781Z,7.20
2023-01-25T19:38:45.395Z,5.88
2023-01-25T19:41:15.305Z,6.90
2023-01-25T19:43:43.638Z,5.63
2023-01-25T19:46:16.073Z,6.03
2023-01-25T19:48:44.586Z,6.03
2023-01-25T19:51:14.379Z,5.47
2023-01-25T19:53:46.936Z,6.00
2023-01-25T19:56:16.403Z,5.50
2023-01-25T19:58:49.835Z,5.47
2023-01-25T20:01:22.174Z,5.83
2023-01-25T20:03:49.678Z,5.70
2023-01-25T20:06:18.594Z,3.90
2023-01-25T20:08:47.083Z,6.95
2023-01-25T20:11:21.776Z,6.40
2023-01-25T20:13:51.219Z,5.20
2023-01-25T20:16:19.376Z,6.10
2023-01-25T20:18:48.298Z,5.18
2023-01-25T20:21:21.185Z,5.57
2023-01-25T20:23:50.949Z,5.97
2023-01-25T20:26:23.971Z,5.67
2023-01-25T20:28:52.728Z,6.13
2023-01-25T20:31:19.950Z,6.83
2023-01-25T20:33:48.028Z,3.80
2023-01-25T20:36:15.224Z,5.77
2023-01-25T20:38:42.757Z,4.97
2023-01-25T20:41:15.704Z,6.10
2023-01-25T20:43:50.558Z,5.80
2023-01-25T20:46:19.338Z,5.67
2023-01-25T20:48:47.117Z,6.32
2023-01-25T20:51:17.093Z,5.37
2023-01-25T20:53:46.103Z,6.70
2023-01-25T20:56:14.225Z,6.23
2023-01-25T20:58:42.519Z,5.53
2023-01-25T21:01:18.555Z,6.40
2023-01-25T21:03:46.024Z,5.63
2023-01-25T21:06:13.861Z,5.63
2023-01-25T21:08:41.209Z,5.07
2023-01-25T21:11:09.409Z,4.90
2023-01-25T21:13:36.503Z,5.40
2023-01-25T21:16:05.326Z,5.73
2023-01-25T21:18:40.839Z,5.40
2023-01-25T21:21:09.515Z,2.80
2023-01-25T21:23:39.246Z,3.60
2023-01-25T21:26:07.462Z,5.33
2023-01-25T21:28:35.331Z,5.90
2023-01-25T21:31:19.302Z,6.13
2023-01-25T21:33:48.119Z,5.30
2023-01-25T21:36:16.731Z,5.50
2023-01-25T21:38:48.978Z,5.23
2023-01-25T21:41:20.206Z,6.53
2023-01-25T21:44:07.114Z,5.07
2023-01-25T21:46:34.816Z,6.30
2023-01-25T21:49:23.566Z,5.63
2023-01-25T21:51:52.586Z,6.17
2023-01-25T21:54:23.934Z,6.10
2023-01-25T21:56:53.385Z,5.87
2023-01-25T21:59:21.736Z,6.83
2023-01-25T22:01:49.395Z,5.10
2023-01-25T22:04:18.004Z,6.20
2023-01-25T22:06:45.579Z,5.83
2023-01-25T22:09:13.796Z,5.27
2023-01-25T22:11:41.183Z,5.80
2023-01-25T22:14:08.289Z,5.50
2023-01-25T22:16:35.514Z,5.73
2023-01-25T22:19:02.702Z,6.23
2023-01-25T22:21:32.243Z,5.53
2023-01-25T22:24:01.754Z,5.77
2023-01-25T22:27:24.290Z,5.17
2023-01-25T22:29:51.445Z,6.17
2023-01-25T22:32:18.588Z,5.43
2023-01-25T22:34:45.647Z,5.73
2023-01-25T22:37:12.845Z,5.57
2023-01-25T22:39:40.157Z,3.93
2023-01-25T22:42:07.401Z,6.30
2023-01-25T22:44:34.480Z,5.77
2023-01-25T22:47:01.655Z,5.70
2023-01-25T22:49:28.844Z,6.50
2023-01-25T22:51:56.009Z,6.23
2023-01-25T22:54:23.118Z,5.90
2023-01-25T22:56:50.203Z,5.63
2023-01-25T22:59:19.187Z,6.03
2023-01-25T23:01:46.461Z,5.20
2023-01-25T23:04:13.627Z,5.53
2023-01-25T23:06:40.791Z,5.17
2023-01-25T23:09:08.018Z,5.87
2023-01-25T23:11:37.773Z,5.50
2023-01-25T23:14:30.720Z,5.73
2023-01-25T23:17:17.788Z,5.67
2023-01-25T23:19:45.173Z,5.93
2023-01-25T23:22:12.445Z,5.97
2023-01-25T23:24:39.609Z,4.63
2023-01-25T23:27:06.838Z,6.43
2023-01-25T23:29:33.902Z,5.80
2023-01-25T23:32:01.043Z,6.20
2023-01-25T23:34:28.244Z,6.20
2023-01-25T23:36:55.373Z,5.80
2023-01-25T23:39:23.727Z,5.33
2023-01-25T23:41:52.471Z,5.83
2023-01-25T23:44:19.550Z,6.27
2023-01-25T23:46:46.890Z,5.70
2023-01-25T23:49:14.324Z,5.30
2023-01-25T23:51:41.448Z,5.20
2023-01-25T23:54:08.648Z,4.83
2023-01-25T23:56:35.720Z,4.87
2023-01-25T23:59:02.802Z,5.07
